sensor_id;sensor_type;location;lat;lon;timestamp;P1;durP1;ratioP1;P2;durP2;ratioP2
8964;SDS011;4517;49.020;12.066;2023-08-06T00:01:57;46.43;;;42.13;;
8964;SDS011;4517;49.020;12.066;2023-08-06T00:04:23;47.27;;;42.30;;
8964;SDS011;4517;49.020;12.066;2023-08-06T00:06:49;47.93;;;43.00;;
8964;SDS011;4517;49.020;12.066;2023-08-06T00:09:15;46.27;;;41.47;;
8964;SDS011;4517;49.020;12.066;2023-08-06T00:11:41;47.57;;;42.97;;
8964;SDS011;4517;49.020;12.066;2023-08-06T00:14:09;46.70;;;41.90;;
8964;SDS011;4517;49.020;12.066;2023-08-06T00:16:35;45.50;;;41.30;;
8964;SDS011;4517;49.020;12.066;2023-08-06T00:19:00;44.77;;;40.57;;
8964;SDS011;4517;49.020;12.066;2023-08-06T00:21:27;51.00;;;45.97;;
8964;SDS011;4517;49.020;12.066;2023-08-06T00:23:53;48.33;;;43.70;;
8964;SDS011;4517;49.020;12.066;2023-08-06T00:26:19;48.10;;;43.40;;
8964;SDS011;4517;49.020;12.066;2023-08-06T00:28:45;47.60;;;43.10;;
8964;SDS011;4517;49.020;12.066;2023-08-06T00:31:11;50.77;;;46.37;;
8964;SDS011;4517;49.020;12.066;2023-08-06T00:33:37;52.07;;;47.33;;
8964;SDS011;4517;49.020;12.066;2023-08-06T00:36:03;49.67;;;45.37;;
8964;SDS011;4517;49.020;12.066;2023-08-06T00:38:29;64.67;;;59.47;;
8964;SDS011;4517;49.020;12.066;2023-08-06T00:40:55;64.97;;;59.70;;
8964;SDS011;4517;49.020;12.066;2023-08-06T00:43:20;64.03;;;58.93;;
8964;SDS011;4517;49.020;12.066;2023-08-06T00:45:46;60.90;;;55.87;;
8964;SDS011;4517;49.020;12.066;2023-08-06T00:48:12;62.43;;;57.83;;
8964;SDS011;4517;49.020;12.066;2023-08-06T00:50:38;59.63;;;54.93;;
8964;SDS011;4517;49.020;12.066;2023-08-06T00:53:04;59.13;;;54.40;;
8964;SDS011;4517;49.020;12.066;2023-08-06T00:55:30;60.30;;;55.60;;
8964;SDS011;4517;49.020;12.066;2023-08-06T00:57:56;56.13;;;51.57;;
8964;SDS011;4517;49.020;12.066;2023-08-06T01:00:23;59.60;;;54.77;;
8964;SDS011;4517;49.020;12.066;2023-08-06T01:02:49;60.03;;;54.90;;
8964;SDS011;4517;49.020;12.066;2023-08-06T01:05:15;57.00;;;52.27;;
8964;SDS011;4517;49.020;12.066;2023-08-06T01:10:19;57.93;;;53.20;;
8964;SDS011;4517;49.020;12.066;2023-08-06T01:12:51;61.03;;;55.83;;
8964;SDS011;4517;49.020;12.066;2023-08-06T01:15:19;61.03;;;56.07;;
8964;SDS011;4517;49.020;12.066;2023-08-06T01:17:47;57.13;;;52.53;;
8964;SDS011;4517;49.020;12.066;2023-08-06T01:20:14;55.67;;;50.80;;
8964;SDS011;4517;49.020;12.066;2023-08-06T01:22:40;51.00;;;46.83;;
8964;SDS011;4517;49.020;12.066;2023-08-06T01:25:06;46.40;;;42.90;;
8964;SDS011;4517;49.020;12.066;2023-08-06T01:27:38;39.73;;;36.20;;
8964;SDS011;4517;49.020;12.066;2023-08-06T01:30:18;35.70;;;33.30;;
8964;SDS011;4517;49.020;12.066;2023-08-06T01:32:46;34.27;;;31.77;;
8964;SDS011;4517;49.020;12.066;2023-08-06T01:35:15;31.77;;;29.70;;
8964;SDS011;4517;49.020;12.066;2023-08-06T01:37:41;27.13;;;25.50;;
8964;SDS011;4517;49.020;12.066;2023-08-06T01:40:10;26.70;;;25.10;;
8964;SDS011;4517;49.020;12.066;2023-08-06T01:42:37;26.67;;;24.90;;
8964;SDS011;4517;49.020;12.066;2023-08-06T01:45:03;25.60;;;24.10;;
8964;SDS011;4517;49.020;12.066;2023-08-06T01:47:29;25.77;;;24.13;;
8964;SDS011;4517;49.020;12.066;2023-08-06T01:49:55;25.70;;;24.20;;
8964;SDS011;4517;49.020;12.066;2023-08-06T01:52:21;26.80;;;25.00;;
8964;SDS011;4517;49.020;12.066;2023-08-06T01:54:47;25.53;;;23.93;;
8964;SDS011;4517;49.020;12.066;2023-08-06T01:57:13;25.73;;;24.13;;
8964;SDS011;4517;49.020;12.066;2023-08-06T01:59:39;25.47;;;23.97;;
8964;SDS011;4517;49.020;12.066;2023-08-06T02:02:05;24.80;;;23.20;;
8964;SDS011;4517;49.020;12.066;2023-08-06T02:04:31;24.90;;;23.40;;
8964;SDS011;4517;49.020;12.066;2023-08-06T02:06:57;24.77;;;23.07;;
8964;SDS011;4517;49.020;12.066;2023-08-06T02:09:23;24.57;;;23.00;;
8964;SDS011;4517;49.020;12.066;2023-08-06T02:11:48;23.80;;;22.30;;
8964;SDS011;4517;49.020;12.066;2023-08-06T02:14:14;24.97;;;23.37;;
8964;SDS011;4517;49.020;12.066;2023-08-06T02:16:40;24.93;;;23.43;;
8964;SDS011;4517;49.020;12.066;2023-08-06T02:19:06;25.70;;;24.10;;
8964;SDS011;4517;49.020;12.066;2023-08-06T02:21:32;25.57;;;23.97;;
8964;SDS011;4517;49.020;12.066;2023-08-06T02:23:58;26.93;;;25.27;;
8964;SDS011;4517;49.020;12.066;2023-08-06T02:26:24;27.10;;;24.97;;
8964;SDS011;4517;49.020;12.066;2023-08-06T02:28:50;27.50;;;25.80;;
8964;SDS011;4517;49.020;12.066;2023-08-06T02:31:16;28.10;;;25.90;;
8964;SDS011;4517;49.020;12.066;2023-08-06T02:33:42;29.27;;;27.00;;
8964;SDS011;4517;49.020;12.066;2023-08-06T02:36:08;29.40;;;27.00;;
8964;SDS011;4517;49.020;12.066;2023-08-06T02:38:34;27.50;;;25.90;;
8964;SDS011;4517;49.020;12.066;2023-08-06T02:41:03;27.33;;;25.43;;
8964;SDS011;4517;49.020;12.066;2023-08-06T02:43:29;27.73;;;25.63;;
8964;SDS011;4517;49.020;12.066;2023-08-06T02:45:58;27.10;;;25.30;;
8964;SDS011;4517;49.020;12.066;2023-08-06T02:48:24;26.70;;;24.80;;
8964;SDS011;4517;49.020;12.066;2023-08-06T02:50:50;27.53;;;25.70;;
8964;SDS011;4517;49.020;12.066;2023-08-06T02:53:16;26.77;;;24.87;;
8964;SDS011;4517;49.020;12.066;2023-08-06T02:55:46;26.90;;;25.30;;
8964;SDS011;4517;49.020;12.066;2023-08-06T02:58:15;26.30;;;24.50;;
8964;SDS011;4517;49.020;12.066;2023-08-06T03:00:42;26.27;;;24.57;;
8964;SDS011;4517;49.020;12.066;2023-08-06T03:03:08;26.37;;;24.40;;
8964;SDS011;4517;49.020;12.066;2023-08-06T03:05:34;26.27;;;24.47;;
8964;SDS011;4517;49.020;12.066;2023-08-06T03:08:00;26.10;;;24.40;;
8964;SDS011;4517;49.020;12.066;2023-08-06T03:10:26;26.53;;;24.83;;
8964;SDS011;4517;49.020;12.066;2023-08-06T03:12:52;25.20;;;23.50;;
8964;SDS011;4517;49.020;12.066;2023-08-06T03:15:18;26.60;;;24.90;;
8964;SDS011;4517;49.020;12.066;2023-08-06T03:17:44;26.73;;;24.83;;
8964;SDS011;4517;49.020;12.066;2023-08-06T03:20:10;28.47;;;26.50;;
8964;SDS011;4517;49.020;12.066;2023-08-06T03:22:36;27.93;;;26.13;;
8964;SDS011;4517;49.020;12.066;2023-08-06T03:25:02;27.80;;;25.40;;
8964;SDS011;4517;49.020;12.066;2023-08-06T03:27:28;28.73;;;26.83;;
8964;SDS011;4517;49.020;12.066;2023-08-06T03:29:54;26.40;;;24.73;;
8964;SDS011;4517;49.020;12.066;2023-08-06T03:32:20;27.50;;;25.80;;
8964;SDS011;4517;49.020;12.066;2023-08-06T03:34:46;27.03;;;25.43;;
8964;SDS011;4517;49.020;12.066;2023-08-06T03:37:12;27.43;;;25.50;;
8964;SDS011;4517;49.020;12.066;2023-08-06T03:39:38;26.97;;;25.27;;
8964;SDS011;4517;49.020;12.066;2023-08-06T03:42:04;27.70;;;25.70;;
8964;SDS011;4517;49.020;12.066;2023-08-06T03:44:30;28.00;;;26.07;;
8964;SDS011;4517;49.020;12.066;2023-08-06T03:46:56;27.50;;;25.70;;
8964;SDS011;4517;49.020;12.066;2023-08-06T03:49:22;27.40;;;25.60;;
8964;SDS011;4517;49.020;12.066;2023-08-06T03:51:48;27.73;;;25.83;;
8964;SDS011;4517;49.020;12.066;2023-08-06T03:54:14;28.60;;;26.47;;
8964;SDS011;4517;49.020;12.066;2023-08-06T03:56:40;27.80;;;26.10;;
8964;SDS011;4517;49.020;12.066;2023-08-06T03:59:06;25.83;;;24.20;;
8964;SDS011;4517;49.020;12.066;2023-08-06T04:01:32;26.50;;;25.00;;
8964;SDS011;4517;49.020;12.066;2023-08-06T04:03:58;27.87;;;26.20;;
8964;SDS011;4517;49.020;12.066;2023-08-06T04:06:24;29.33;;;27.20;;
8964;SDS011;4517;49.020;12.066;2023-08-06T04:08:50;29.33;;;27.63;;
8964;SDS011;4517;49.020;12.066;2023-08-06T04:11:16;30.17;;;28.27;;
8964;SDS011;4517;49.020;12.066;2023-08-06T04:13:42;29.90;;;27.97;;
8964;SDS011;4517;49.020;12.066;2023-08-06T04:16:09;29.73;;;28.03;;
8964;SDS011;4517;49.020;12.066;2023-08-06T04:18:35;29.90;;;28.10;;
8964;SDS011;4517;49.020;12.066;2023-08-06T04:21:01;27.67;;;25.97;;
8964;SDS011;4517;49.020;12.066;2023-08-06T04:23:27;29.40;;;27.27;;
8964;SDS011;4517;49.020;12.066;2023-08-06T04:25:56;27.97;;;26.10;;
8964;SDS011;4517;49.020;12.066;2023-08-06T04:28:22;28.70;;;26.63;;
8964;SDS011;4517;49.020;12.066;2023-08-06T04:30:48;27.37;;;25.67;;
8964;SDS011;4517;49.020;12.066;2023-08-06T04:33:14;28.30;;;26.67;;
8964;SDS011;4517;49.020;12.066;2023-08-06T04:35:40;29.67;;;27.47;;
8964;SDS011;4517;49.020;12.066;2023-08-06T04:38:06;28.80;;;26.77;;
8964;SDS011;4517;49.020;12.066;2023-08-06T04:40:35;26.77;;;25.17;;
8964;SDS011;4517;49.020;12.066;2023-08-06T04:43:01;26.13;;;24.63;;
8964;SDS011;4517;49.020;12.066;2023-08-06T04:45:27;26.63;;;25.13;;
8964;SDS011;4517;49.020;12.066;2023-08-06T04:47:53;27.37;;;25.77;;
8964;SDS011;4517;49.020;12.066;2023-08-06T04:50:19;27.73;;;25.93;;
8964;SDS011;4517;49.020;12.066;2023-08-06T04:52:45;24.13;;;22.73;;
8964;SDS011;4517;49.020;12.066;2023-08-06T04:55:11;24.93;;;23.13;;
8964;SDS011;4517;49.020;12.066;2023-08-06T04:57:37;25.43;;;23.50;;
8964;SDS011;4517;49.020;12.066;2023-08-06T05:00:03;22.70;;;21.40;;
8964;SDS011;4517;49.020;12.066;2023-08-06T05:02:30;21.70;;;20.33;;
8964;SDS011;4517;49.020;12.066;2023-08-06T05:04:57;21.80;;;20.17;;
8964;SDS011;4517;49.020;12.066;2023-08-06T05:07:23;21.50;;;20.20;;
8964;SDS011;4517;49.020;12.066;2023-08-06T05:09:49;20.80;;;19.43;;
8964;SDS011;4517;49.020;12.066;2023-08-06T05:12:15;21.40;;;19.83;;
8964;SDS011;4517;49.020;12.066;2023-08-06T05:14:41;20.10;;;19.00;;
8964;SDS011;4517;49.020;12.066;2023-08-06T05:17:07;21.40;;;20.07;;
8964;SDS011;4517;49.020;12.066;2023-08-06T05:19:33;19.80;;;18.50;;
8964;SDS011;4517;49.020;12.066;2023-08-06T05:21:59;22.00;;;20.60;;
8964;SDS011;4517;49.020;12.066;2023-08-06T05:24:25;19.00;;;17.60;;
8964;SDS011;4517;49.020;12.066;2023-08-06T05:26:51;19.17;;;17.97;;
8964;SDS011;4517;49.020;12.066;2023-08-06T05:29:17;20.07;;;18.77;;
8964;SDS011;4517;49.020;12.066;2023-08-06T05:31:43;20.83;;;19.53;;
8964;SDS011;4517;49.020;12.066;2023-08-06T05:34:09;20.10;;;18.90;;
8964;SDS011;4517;49.020;12.066;2023-08-06T05:36:35;20.37;;;19.20;;
8964;SDS011;4517;49.020;12.066;2023-08-06T05:39:01;19.50;;;18.20;;
8964;SDS011;4517;49.020;12.066;2023-08-06T05:41:27;19.40;;;18.30;;
8964;SDS011;4517;49.020;12.066;2023-08-06T05:43:53;18.37;;;17.37;;
8964;SDS011;4517;49.020;12.066;2023-08-06T05:46:19;18.30;;;16.83;;
8964;SDS011;4517;49.020;12.066;2023-08-06T05:48:45;17.37;;;16.27;;
8964;SDS011;4517;49.020;12.066;2023-08-06T05:51:11;17.33;;;16.43;;
8964;SDS011;4517;49.020;12.066;2023-08-06T05:53:38;16.77;;;15.67;;
8964;SDS011;4517;49.020;12.066;2023-08-06T05:56:04;15.60;;;14.60;;
8964;SDS011;4517;49.020;12.066;2023-08-06T05:58:30;15.90;;;15.00;;
8964;SDS011;4517;49.020;12.066;2023-08-06T06:00:56;16.57;;;15.50;;
8964;SDS011;4517;49.020;12.066;2023-08-06T06:03:22;15.50;;;14.50;;
8964;SDS011;4517;49.020;12.066;2023-08-06T06:05:48;15.57;;;14.47;;
8964;SDS011;4517;49.020;12.066;2023-08-06T06:08:14;15.03;;;14.10;;
8964;SDS011;4517;49.020;12.066;2023-08-06T06:10:40;14.50;;;13.60;;
8964;SDS011;4517;49.020;12.066;2023-08-06T06:13:06;16.23;;;14.43;;
8964;SDS011;4517;49.020;12.066;2023-08-06T06:15:32;14.97;;;13.97;;
8964;SDS011;4517;49.020;12.066;2023-08-06T06:17:57;14.53;;;13.63;;
8964;SDS011;4517;49.020;12.066;2023-08-06T06:20:23;14.43;;;13.40;;
8964;SDS011;4517;49.020;12.066;2023-08-06T06:22:49;14.53;;;13.67;;
8964;SDS011;4517;49.020;12.066;2023-08-06T06:25:15;13.70;;;12.80;;
8964;SDS011;4517;49.020;12.066;2023-08-06T06:27:41;13.03;;;12.23;;
8964;SDS011;4517;49.020;12.066;2023-08-06T06:30:07;15.27;;;14.10;;
8964;SDS011;4517;49.020;12.066;2023-08-06T06:32:33;14.50;;;13.70;;
8964;SDS011;4517;49.020;12.066;2023-08-06T06:34:59;15.00;;;14.10;;
8964;SDS011;4517;49.020;12.066;2023-08-06T06:37:26;15.47;;;14.40;;
8964;SDS011;4517;49.020;12.066;2023-08-06T06:39:51;16.67;;;14.93;;
8964;SDS011;4517;49.020;12.066;2023-08-06T06:42:17;16.53;;;15.20;;
8964;SDS011;4517;49.020;12.066;2023-08-06T06:44:43;16.30;;;15.17;;
8964;SDS011;4517;49.020;12.066;2023-08-06T06:47:09;14.63;;;13.67;;
8964;SDS011;4517;49.020;12.066;2023-08-06T06:49:35;14.83;;;13.83;;
8964;SDS011;4517;49.020;12.066;2023-08-06T06:52:01;15.90;;;15.00;;
8964;SDS011;4517;49.020;12.066;2023-08-06T06:54:27;16.33;;;14.70;;
8964;SDS011;4517;49.020;12.066;2023-08-06T06:56:53;16.00;;;14.87;;
8964;SDS011;4517;49.020;12.066;2023-08-06T06:59:19;14.63;;;13.73;;
8964;SDS011;4517;49.020;12.066;2023-08-06T07:01:45;20.20;;;17.80;;
8964;SDS011;4517;49.020;12.066;2023-08-06T07:04:11;14.90;;;14.00;;
8964;SDS011;4517;49.020;12.066;2023-08-06T07:06:37;15.07;;;14.17;;
8964;SDS011;4517;49.020;12.066;2023-08-06T07:09:03;15.20;;;14.17;;
8964;SDS011;4517;49.020;12.066;2023-08-06T07:11:29;15.93;;;14.77;;
8964;SDS011;4517;49.020;12.066;2023-08-06T07:13:56;15.93;;;14.73;;
8964;SDS011;4517;49.020;12.066;2023-08-06T07:16:23;15.53;;;14.43;;
8964;SDS011;4517;49.020;12.066;2023-08-06T07:18:49;15.07;;;14.07;;
8964;SDS011;4517;49.020;12.066;2023-08-06T07:21:15;14.53;;;13.60;;
8964;SDS011;4517;49.020;12.066;2023-08-06T07:23:40;14.97;;;14.07;;
8964;SDS011;4517;49.020;12.066;2023-08-06T07:26:06;15.63;;;14.33;;
8964;SDS011;4517;49.020;12.066;2023-08-06T07:28:32;14.80;;;13.80;;
8964;SDS011;4517;49.020;12.066;2023-08-06T07:30:58;16.30;;;14.90;;
8964;SDS011;4517;49.020;12.066;2023-08-06T07:33:24;13.73;;;12.93;;
8964;SDS011;4517;49.020;12.066;2023-08-06T07:35:50;15.33;;;14.33;;
8964;SDS011;4517;49.020;12.066;2023-08-06T07:38:16;15.37;;;14.00;;
8964;SDS011;4517;49.020;12.066;2023-08-06T07:40:42;14.30;;;13.30;;
8964;SDS011;4517;49.020;12.066;2023-08-06T07:43:09;14.70;;;13.37;;
8964;SDS011;4517;49.020;12.066;2023-08-06T07:45:35;14.93;;;14.03;;
8964;SDS011;4517;49.020;12.066;2023-08-06T07:48:02;13.33;;;12.47;;
8964;SDS011;4517;49.020;12.066;2023-08-06T07:50:28;13.90;;;13.00;;
8964;SDS011;4517;49.020;12.066;2023-08-06T07:52:54;15.20;;;13.70;;
8964;SDS011;4517;49.020;12.066;2023-08-06T07:55:20;14.73;;;13.53;;
8964;SDS011;4517;49.020;12.066;2023-08-06T07:57:46;15.27;;;14.00;;
8964;SDS011;4517;49.020;12.066;2023-08-06T08:00:12;15.27;;;14.07;;
8964;SDS011;4517;49.020;12.066;2023-08-06T08:02:38;15.53;;;13.40;;
8964;SDS011;4517;49.020;12.066;2023-08-06T08:05:04;15.37;;;14.17;;
8964;SDS011;4517;49.020;12.066;2023-08-06T08:07:32;14.77;;;13.73;;
8964;SDS011;4517;49.020;12.066;2023-08-06T08:09:58;14.53;;;13.63;;
8964;SDS011;4517;49.020;12.066;2023-08-06T08:12:24;14.47;;;13.47;;
8964;SDS011;4517;49.020;12.066;2023-08-06T08:14:50;14.00;;;13.10;;
8964;SDS011;4517;49.020;12.066;2023-08-06T08:17:16;13.90;;;13.00;;
8964;SDS011;4517;49.020;12.066;2023-08-06T08:19:42;13.97;;;13.07;;
8964;SDS011;4517;49.020;12.066;2023-08-06T08:22:08;14.93;;;13.83;;
8964;SDS011;4517;49.020;12.066;2023-08-06T08:24:34;13.70;;;12.90;;
8964;SDS011;4517;49.020;12.066;2023-08-06T08:27:00;14.33;;;13.43;;
8964;SDS011;4517;49.020;12.066;2023-08-06T08:29:26;14.00;;;13.00;;
8964;SDS011;4517;49.020;12.066;2023-08-06T08:31:52;14.40;;;13.50;;
8964;SDS011;4517;49.020;12.066;2023-08-06T08:34:18;13.27;;;12.40;;
8964;SDS011;4517;49.020;12.066;2023-08-06T08:36:44;13.77;;;12.97;;
8964;SDS011;4517;49.020;12.066;2023-08-06T08:39:14;14.70;;;13.80;;
8964;SDS011;4517;49.020;12.066;2023-08-06T08:41:40;13.53;;;12.53;;
8964;SDS011;4517;49.020;12.066;2023-08-06T08:44:08;14.97;;;13.97;;
8964;SDS011;4517;49.020;12.066;2023-08-06T08:46:40;15.37;;;14.27;;
8964;SDS011;4517;49.020;12.066;2023-08-06T08:49:06;14.13;;;13.10;;
8964;SDS011;4517;49.020;12.066;2023-08-06T08:51:33;14.50;;;13.50;;
8964;SDS011;4517;49.020;12.066;2023-08-06T08:53:59;13.37;;;12.57;;
8964;SDS011;4517;49.020;12.066;2023-08-06T08:56:28;12.67;;;11.87;;
8964;SDS011;4517;49.020;12.066;2023-08-06T08:58:54;13.77;;;12.83;;
8964;SDS011;4517;49.020;12.066;2023-08-06T09:01:21;14.73;;;13.53;;
8964;SDS011;4517;49.020;12.066;2023-08-06T09:03:48;14.00;;;13.20;;
8964;SDS011;4517;49.020;12.066;2023-08-06T09:06:14;14.33;;;13.40;;
8964;SDS011;4517;49.020;12.066;2023-08-06T09:08:48;14.03;;;13.03;;
8964;SDS011;4517;49.020;12.066;2023-08-06T09:11:15;13.60;;;12.70;;
8964;SDS011;4517;49.020;12.066;2023-08-06T09:13:41;13.87;;;12.77;;
8964;SDS011;4517;49.020;12.066;2023-08-06T09:16:07;14.43;;;13.40;;
8964;SDS011;4517;49.020;12.066;2023-08-06T09:18:33;15.00;;;14.10;;
8964;SDS011;4517;49.020;12.066;2023-08-06T09:20:59;13.60;;;12.80;;
8964;SDS011;4517;49.020;12.066;2023-08-06T09:23:29;13.50;;;12.70;;
8964;SDS011;4517;49.020;12.066;2023-08-06T09:25:55;14.43;;;13.63;;
8964;SDS011;4517;49.020;12.066;2023-08-06T09:28:21;14.57;;;13.67;;
8964;SDS011;4517;49.020;12.066;2023-08-06T09:30:49;13.73;;;12.90;;
8964;SDS011;4517;49.020;12.066;2023-08-06T09:33:19;13.43;;;12.43;;
8964;SDS011;4517;49.020;12.066;2023-08-06T09:35:45;12.67;;;11.87;;
8964;SDS011;4517;49.020;12.066;2023-08-06T09:38:12;13.57;;;12.67;;
8964;SDS011;4517;49.020;12.066;2023-08-06T09:40:38;13.30;;;12.50;;
8964;SDS011;4517;49.020;12.066;2023-08-06T09:43:05;12.90;;;12.00;;
8964;SDS011;4517;49.020;12.066;2023-08-06T09:45:32;13.43;;;12.63;;
8964;SDS011;4517;49.020;12.066;2023-08-06T09:47:59;13.60;;;12.80;;
8964;SDS011;4517;49.020;12.066;2023-08-06T09:50:29;13.00;;;12.20;;
8964;SDS011;4517;49.020;12.066;2023-08-06T09:52:59;12.80;;;12.00;;
8964;SDS011;4517;49.020;12.066;2023-08-06T09:55:25;14.50;;;13.60;;
8964;SDS011;4517;49.020;12.066;2023-08-06T09:57:52;13.50;;;12.70;;
8964;SDS011;4517;49.020;12.066;2023-08-06T10:00:18;14.43;;;13.53;;
8964;SDS011;4517;49.020;12.066;2023-08-06T10:02:44;13.87;;;13.10;;
8964;SDS011;4517;49.020;12.066;2023-08-06T10:05:10;14.80;;;13.80;;
8964;SDS011;4517;49.020;12.066;2023-08-06T10:07:37;14.43;;;13.53;;
8964;SDS011;4517;49.020;12.066;2023-08-06T10:10:06;14.00;;;13.20;;
8964;SDS011;4517;49.020;12.066;2023-08-06T10:12:33;12.90;;;12.20;;
8964;SDS011;4517;49.020;12.066;2023-08-06T10:15:01;12.70;;;12.00;;
8964;SDS011;4517;49.020;12.066;2023-08-06T10:17:31;14.63;;;13.40;;
8964;SDS011;4517;49.020;12.066;2023-08-06T10:19:58;14.87;;;13.90;;
8964;SDS011;4517;49.020;12.066;2023-08-06T10:22:24;14.77;;;13.87;;
8964;SDS011;4517;49.020;12.066;2023-08-06T10:29:56;24.57;;;22.40;;
8964;SDS011;4517;49.020;12.066;2023-08-06T10:32:52;23.00;;;21.10;;
8964;SDS011;4517;49.020;12.066;2023-08-06T10:35:28;23.40;;;21.50;;
8964;SDS011;4517;49.020;12.066;2023-08-06T10:37:57;23.10;;;21.33;;
8964;SDS011;4517;49.020;12.066;2023-08-06T10:40:24;20.73;;;19.20;;
8964;SDS011;4517;49.020;12.066;2023-08-06T10:42:51;20.67;;;19.30;;
8964;SDS011;4517;49.020;12.066;2023-08-06T10:45:17;19.73;;;18.33;;
8964;SDS011;4517;49.020;12.066;2023-08-06T10:47:44;20.20;;;18.90;;
8964;SDS011;4517;49.020;12.066;2023-08-06T10:50:11;19.40;;;18.10;;
8964;SDS011;4517;49.020;12.066;2023-08-06T10:52:37;19.90;;;18.30;;
8964;SDS011;4517;49.020;12.066;2023-08-06T10:55:03;20.77;;;19.10;;
8964;SDS011;4517;49.020;12.066;2023-08-06T10:57:29;21.30;;;19.50;;
8964;SDS011;4517;49.020;12.066;2023-08-06T10:59:55;22.03;;;20.07;;
8964;SDS011;4517;49.020;12.066;2023-08-06T11:02:21;21.20;;;19.70;;
8964;SDS011;4517;49.020;12.066;2023-08-06T11:04:48;20.57;;;18.93;;
8964;SDS011;4517;49.020;12.066;2023-08-06T11:07:14;20.00;;;18.40;;
8964;SDS011;4517;49.020;12.066;2023-08-06T11:09:40;19.60;;;18.10;;
8964;SDS011;4517;49.020;12.066;2023-08-06T11:12:09;20.03;;;18.63;;
8964;SDS011;4517;49.020;12.066;2023-08-06T11:14:35;20.50;;;19.10;;
8964;SDS011;4517;49.020;12.066;2023-08-06T11:17:01;21.37;;;19.53;;
8964;SDS011;4517;49.020;12.066;2023-08-06T11:19:27;21.77;;;19.97;;
8964;SDS011;4517;49.020;12.066;2023-08-06T11:21:54;22.80;;;20.80;;
8964;SDS011;4517;49.020;12.066;2023-08-06T11:24:20;22.83;;;21.13;;
8964;SDS011;4517;49.020;12.066;2023-08-06T11:26:46;27.10;;;25.30;;
8964;SDS011;4517;49.020;12.066;2023-08-06T11:29:12;20.63;;;18.93;;
8964;SDS011;4517;49.020;12.066;2023-08-06T11:31:40;19.70;;;18.30;;
8964;SDS011;4517;49.020;12.066;2023-08-06T11:34:06;21.33;;;19.73;;
8964;SDS011;4517;49.020;12.066;2023-08-06T11:36:33;22.97;;;21.27;;
8964;SDS011;4517;49.020;12.066;2023-08-06T11:39:02;22.03;;;20.13;;
8964;SDS011;4517;49.020;12.066;2023-08-06T11:41:32;21.53;;;19.93;;
8964;SDS011;4517;49.020;12.066;2023-08-06T11:43:58;21.10;;;19.50;;
8964;SDS011;4517;49.020;12.066;2023-08-06T11:46:24;21.13;;;19.43;;
8964;SDS011;4517;49.020;12.066;2023-08-06T11:48:54;22.67;;;20.97;;
8964;SDS011;4517;49.020;12.066;2023-08-06T11:51:26;21.23;;;19.63;;
8964;SDS011;4517;49.020;12.066;2023-08-06T11:53:56;21.60;;;20.00;;
8964;SDS011;4517;49.020;12.066;2023-08-06T11:56:22;21.83;;;20.33;;
8964;SDS011;4517;49.020;12.066;2023-08-06T11:58:48;22.10;;;20.50;;
8964;SDS011;4517;49.020;12.066;2023-08-06T12:01:14;27.50;;;25.50;;
8964;SDS011;4517;49.020;12.066;2023-08-06T12:03:40;20.70;;;19.10;;
8964;SDS011;4517;49.020;12.066;2023-08-06T12:06:06;21.33;;;19.70;;
8964;SDS011;4517;49.020;12.066;2023-08-06T12:08:32;24.83;;;23.13;;
8964;SDS011;4517;49.020;12.066;2023-08-06T12:10:59;20.93;;;19.33;;
8964;SDS011;4517;49.020;12.066;2023-08-06T12:13:25;21.00;;;19.70;;
8964;SDS011;4517;49.020;12.066;2023-08-06T12:15:51;19.97;;;18.57;;
8964;SDS011;4517;49.020;12.066;2023-08-06T12:18:18;20.00;;;18.50;;
8964;SDS011;4517;49.020;12.066;2023-08-06T12:20:44;19.67;;;18.27;;
8964;SDS011;4517;49.020;12.066;2023-08-06T12:23:10;20.17;;;18.67;;
8964;SDS011;4517;49.020;12.066;2023-08-06T12:25:40;20.60;;;19.10;;
8964;SDS011;4517;49.020;12.066;2023-08-06T12:28:06;20.80;;;19.20;;
8964;SDS011;4517;49.020;12.066;2023-08-06T12:30:33;21.00;;;19.60;;
8964;SDS011;4517;49.020;12.066;2023-08-06T12:32:59;20.20;;;18.80;;
8964;SDS011;4517;49.020;12.066;2023-08-06T12:35:25;19.20;;;17.90;;
8964;SDS011;4517;49.020;12.066;2023-08-06T12:37:51;20.40;;;19.03;;
8964;SDS011;4517;49.020;12.066;2023-08-06T12:40:19;17.87;;;16.67;;
8964;SDS011;4517;49.020;12.066;2023-08-06T12:42:45;18.33;;;17.13;;
8964;SDS011;4517;49.020;12.066;2023-08-06T12:45:11;18.60;;;17.40;;
8964;SDS011;4517;49.020;12.066;2023-08-06T12:47:37;23.43;;;21.40;;
8964;SDS011;4517;49.020;12.066;2023-08-06T12:50:03;23.93;;;21.80;;
8964;SDS011;4517;49.020;12.066;2023-08-06T12:52:30;21.73;;;19.93;;
8964;SDS011;4517;49.020;12.066;2023-08-06T12:54:55;21.30;;;19.80;;
8964;SDS011;4517;49.020;12.066;2023-08-06T12:57:21;22.87;;;21.47;;
8964;SDS011;4517;49.020;12.066;2023-08-06T12:59:47;21.10;;;19.80;;
8964;SDS011;4517;49.020;12.066;2023-08-06T13:02:13;22.30;;;21.00;;
8964;SDS011;4517;49.020;12.066;2023-08-06T13:04:39;20.13;;;19.00;;
8964;SDS011;4517;49.020;12.066;2023-08-06T13:07:05;18.20;;;17.20;;
8964;SDS011;4517;49.020;12.066;2023-08-06T13:09:32;19.37;;;18.07;;
8964;SDS011;4517;49.020;12.066;2023-08-06T13:11:58;18.50;;;17.30;;
8964;SDS011;4517;49.020;12.066;2023-08-06T13:14:25;20.10;;;18.90;;
8964;SDS011;4517;49.020;12.066;2023-08-06T13:16:51;19.00;;;17.70;;
8964;SDS011;4517;49.020;12.066;2023-08-06T13:19:17;19.43;;;18.10;;
8964;SDS011;4517;49.020;12.066;2023-08-06T13:24:12;19.50;;;18.00;;
8964;SDS011;4517;49.020;12.066;2023-08-06T13:26:38;18.93;;;17.57;;
8964;SDS011;4517;49.020;12.066;2023-08-06T13:29:04;18.87;;;17.57;;
8964;SDS011;4517;49.020;12.066;2023-08-06T13:31:32;21.30;;;19.90;;
8964;SDS011;4517;49.020;12.066;2023-08-06T13:33:58;19.90;;;18.53;;
8964;SDS011;4517;49.020;12.066;2023-08-06T13:36:25;19.30;;;18.00;;
8964;SDS011;4517;49.020;12.066;2023-08-06T13:38:51;18.93;;;17.63;;
8964;SDS011;4517;49.020;12.066;2023-08-06T13:41:17;19.67;;;18.27;;
8964;SDS011;4517;49.020;12.066;2023-08-06T13:43:43;19.33;;;18.07;;
8964;SDS011;4517;49.020;12.066;2023-08-06T13:46:10;20.40;;;18.93;;
8964;SDS011;4517;49.020;12.066;2023-08-06T13:48:41;19.27;;;17.97;;
8964;SDS011;4517;49.020;12.066;2023-08-06T13:51:06;19.50;;;18.10;;
8964;SDS011;4517;49.020;12.066;2023-08-06T13:53:32;18.37;;;17.13;;
8964;SDS011;4517;49.020;12.066;2023-08-06T13:55:58;18.70;;;17.50;;
8964;SDS011;4517;49.020;12.066;2023-08-06T13:58:24;18.30;;;17.20;;
8964;SDS011;4517;49.020;12.066;2023-08-06T14:00:51;18.53;;;17.43;;
8964;SDS011;4517;49.020;12.066;2023-08-06T14:03:18;27.37;;;25.83;;
8964;SDS011;4517;49.020;12.066;2023-08-06T14:05:44;18.80;;;17.80;;
8964;SDS011;4517;49.020;12.066;2023-08-06T14:08:10;16.63;;;15.73;;
8964;SDS011;4517;49.020;12.066;2023-08-06T14:10:36;16.30;;;15.40;;
8964;SDS011;4517;49.020;12.066;2023-08-06T14:13:02;16.13;;;15.23;;
8964;SDS011;4517;49.020;12.066;2023-08-06T14:15:27;15.07;;;14.27;;
8964;SDS011;4517;49.020;12.066;2023-08-06T14:17:53;13.80;;;13.10;;
8964;SDS011;4517;49.020;12.066;2023-08-06T14:20:19;14.10;;;13.30;;
8964;SDS011;4517;49.020;12.066;2023-08-06T14:22:45;12.53;;;11.83;;
8964;SDS011;4517;49.020;12.066;2023-08-06T14:25:11;12.30;;;11.70;;
8964;SDS011;4517;49.020;12.066;2023-08-06T14:27:37;12.30;;;11.60;;
8964;SDS011;4517;49.020;12.066;2023-08-06T14:30:06;12.07;;;11.47;;
8964;SDS011;4517;49.020;12.066;2023-08-06T14:32:33;12.00;;;11.23;;
8964;SDS011;4517;49.020;12.066;2023-08-06T14:34:59;10.70;;;10.20;;
8964;SDS011;4517;49.020;12.066;2023-08-06T14:37:25;11.27;;;10.77;;
8964;SDS011;4517;49.020;12.066;2023-08-06T14:39:51;11.43;;;10.93;;